sensor_id;sensor_type;location;lat;lon;timestamp;P1;durP1;ratioP1;P2;durP2;ratioP2
5898;SDS011;2975;50.956;6.962;2023-08-06T00:02:19;2.53;;;2.20;;
5898;SDS011;2975;50.956;6.962;2023-08-06T00:04:45;5.23;;;2.10;;
5898;SDS011;2975;50.956;6.962;2023-08-06T00:07:10;2.57;;;2.00;;
5898;SDS011;2975;50.956;6.962;2023-08-06T00:09:36;2.30;;;2.10;;
5898;SDS011;2975;50.956;6.962;2023-08-06T00:12:01;3.77;;;2.20;;
5898;SDS011;2975;50.956;6.962;2023-08-06T00:14:27;7.10;;;2.17;;
5898;SDS011;2975;50.956;6.962;2023-08-06T00:16:53;3.13;;;2.50;;
5898;SDS011;2975;50.956;6.962;2023-08-06T00:19:18;3.80;;;2.37;;
5898;SDS011;2975;50.956;6.962;2023-08-06T00:21:44;3.30;;;2.30;;
5898;SDS011;2975;50.956;6.962;2023-08-06T00:24:09;3.73;;;2.10;;
5898;SDS011;2975;50.956;6.962;2023-08-06T00:26:35;2.50;;;2.30;;
5898;SDS011;2975;50.956;6.962;2023-08-06T00:29:01;2.83;;;2.20;;
5898;SDS011;2975;50.956;6.962;2023-08-06T00:31:26;2.50;;;2.30;;
5898;SDS011;2975;50.956;6.962;2023-08-06T00:33:52;3.90;;;2.40;;
5898;SDS011;2975;50.956;6.962;2023-08-06T00:36:18;3.97;;;2.53;;
5898;SDS011;2975;50.956;6.962;2023-08-06T00:38:43;5.83;;;2.50;;
5898;SDS011;2975;50.956;6.962;2023-08-06T00:41:09;2.50;;;2.30;;
5898;SDS011;2975;50.956;6.962;2023-08-06T00:43:34;3.47;;;2.67;;
5898;SDS011;2975;50.956;6.962;2023-08-06T00:46:00;4.07;;;2.33;;
5898;SDS011;2975;50.956;6.962;2023-08-06T00:48:25;2.40;;;2.20;;
5898;SDS011;2975;50.956;6.962;2023-08-06T00:50:51;5.83;;;2.27;;
5898;SDS011;2975;50.956;6.962;2023-08-06T00:53:18;6.27;;;2.80;;
5898;SDS011;2975;50.956;6.962;2023-08-06T00:55:45;4.83;;;2.77;;
5898;SDS011;2975;50.956;6.962;2023-08-06T00:58:11;5.53;;;2.80;;
5898;SDS011;2975;50.956;6.962;2023-08-06T01:00:38;5.73;;;2.77;;
5898;SDS011;2975;50.956;6.962;2023-08-06T01:03:04;4.33;;;2.60;;
5898;SDS011;2975;50.956;6.962;2023-08-06T01:05:30;3.13;;;2.80;;
5898;SDS011;2975;50.956;6.962;2023-08-06T01:15:35;4.80;;;2.93;;
5898;SDS011;2975;50.956;6.962;2023-08-06T01:18:06;4.93;;;2.50;;
5898;SDS011;2975;50.956;6.962;2023-08-06T01:20:32;6.67;;;3.10;;
5898;SDS011;2975;50.956;6.962;2023-08-06T01:22:58;3.40;;;2.53;;
5898;SDS011;2975;50.956;6.962;2023-08-06T01:25:30;6.10;;;2.80;;
5898;SDS011;2975;50.956;6.962;2023-08-06T01:28:03;5.90;;;2.80;;
5898;SDS011;2975;50.956;6.962;2023-08-06T01:30:32;4.57;;;2.77;;
5898;SDS011;2975;50.956;6.962;2023-08-06T01:33:04;3.17;;;2.73;;
5898;SDS011;2975;50.956;6.962;2023-08-06T01:35:30;4.10;;;2.80;;
5898;SDS011;2975;50.956;6.962;2023-08-06T01:37:58;5.27;;;3.20;;
5898;SDS011;2975;50.956;6.962;2023-08-06T01:40:25;3.43;;;2.33;;
5898;SDS011;2975;50.956;6.962;2023-08-06T01:42:53;6.73;;;2.97;;
5898;SDS011;2975;50.956;6.962;2023-08-06T01:45:18;5.83;;;3.40;;
5898;SDS011;2975;50.956;6.962;2023-08-06T01:47:44;3.53;;;2.90;;
5898;SDS011;2975;50.956;6.962;2023-08-06T01:50:10;5.40;;;2.97;;
5898;SDS011;2975;50.956;6.962;2023-08-06T01:52:35;6.37;;;2.63;;
5898;SDS011;2975;50.956;6.962;2023-08-06T01:55:01;3.53;;;2.73;;
5898;SDS011;2975;50.956;6.962;2023-08-06T01:57:26;3.20;;;2.90;;
5898;SDS011;2975;50.956;6.962;2023-08-06T01:59:52;3.70;;;3.33;;
5898;SDS011;2975;50.956;6.962;2023-08-06T02:02:17;7.03;;;3.50;;
5898;SDS011;2975;50.956;6.962;2023-08-06T02:04:43;3.60;;;2.67;;
5898;SDS011;2975;50.956;6.962;2023-08-06T02:07:08;3.70;;;2.70;;
5898;SDS011;2975;50.956;6.962;2023-08-06T02:09:34;3.60;;;3.03;;
5898;SDS011;2975;50.956;6.962;2023-08-06T02:12:00;3.73;;;2.73;;
5898;SDS011;2975;50.956;6.962;2023-08-06T02:14:26;3.87;;;2.70;;
5898;SDS011;2975;50.956;6.962;2023-08-06T02:16:51;3.90;;;2.77;;
5898;SDS011;2975;50.956;6.962;2023-08-06T02:19:17;5.40;;;2.90;;
5898;SDS011;2975;50.956;6.962;2023-08-06T02:21:42;4.53;;;2.60;;
5898;SDS011;2975;50.956;6.962;2023-08-06T02:24:08;6.37;;;3.30;;
5898;SDS011;2975;50.956;6.962;2023-08-06T02:26:33;6.97;;;3.00;;
5898;SDS011;2975;50.956;6.962;2023-08-06T02:28:59;5.10;;;3.00;;
5898;SDS011;2975;50.956;6.962;2023-08-06T02:31:25;3.20;;;2.60;;
5898;SDS011;2975;50.956;6.962;2023-08-06T02:33:50;4.10;;;2.90;;
5898;SDS011;2975;50.956;6.962;2023-08-06T02:36:16;3.77;;;2.57;;
5898;SDS011;2975;50.956;6.962;2023-08-06T02:38:41;3.50;;;2.33;;
5898;SDS011;2975;50.956;6.962;2023-08-06T02:41:07;7.80;;;3.40;;
5898;SDS011;2975;50.956;6.962;2023-08-06T02:43:33;3.33;;;2.57;;
5898;SDS011;2975;50.956;6.962;2023-08-06T02:45:58;2.43;;;2.23;;
5898;SDS011;2975;50.956;6.962;2023-08-06T02:48:25;5.60;;;2.60;;
5898;SDS011;2975;50.956;6.962;2023-08-06T02:50:51;2.30;;;2.07;;
5898;SDS011;2975;50.956;6.962;2023-08-06T02:53:16;5.07;;;2.50;;
5898;SDS011;2975;50.956;6.962;2023-08-06T02:55:46;6.40;;;2.50;;
5898;SDS011;2975;50.956;6.962;2023-08-06T02:58:15;3.47;;;2.50;;
5898;SDS011;2975;50.956;6.962;2023-08-06T03:00:42;3.40;;;2.60;;
5898;SDS011;2975;50.956;6.962;2023-08-06T03:03:11;4.10;;;2.30;;
5898;SDS011;2975;50.956;6.962;2023-08-06T03:05:37;4.17;;;2.33;;
5898;SDS011;2975;50.956;6.962;2023-08-06T03:08:02;2.13;;;1.93;;
5898;SDS011;2975;50.956;6.962;2023-08-06T03:10:28;3.23;;;2.50;;
5898;SDS011;2975;50.956;6.962;2023-08-06T03:12:53;3.97;;;2.30;;
5898;SDS011;2975;50.956;6.962;2023-08-06T03:15:19;4.57;;;2.60;;
5898;SDS011;2975;50.956;6.962;2023-08-06T03:17:44;2.57;;;2.27;;
5898;SDS011;2975;50.956;6.962;2023-08-06T03:20:10;4.30;;;2.40;;
5898;SDS011;2975;50.956;6.962;2023-08-06T03:22:36;3.17;;;2.30;;
5898;SDS011;2975;50.956;6.962;2023-08-06T03:25:02;5.37;;;2.20;;
5898;SDS011;2975;50.956;6.962;2023-08-06T03:27:28;3.97;;;2.50;;
5898;SDS011;2975;50.956;6.962;2023-08-06T03:29:53;2.73;;;1.90;;
5898;SDS011;2975;50.956;6.962;2023-08-06T03:32:19;3.50;;;2.40;;
5898;SDS011;2975;50.956;6.962;2023-08-06T03:34:44;3.90;;;2.13;;
5898;SDS011;2975;50.956;6.962;2023-08-06T03:37:10;4.27;;;2.40;;
5898;SDS011;2975;50.956;6.962;2023-08-06T03:39:36;6.37;;;2.37;;
5898;SDS011;2975;50.956;6.962;2023-08-06T03:42:01;3.10;;;2.00;;
5898;SDS011;2975;50.956;6.962;2023-08-06T03:44:27;3.23;;;2.30;;
5898;SDS011;2975;50.956;6.962;2023-08-06T03:46:53;2.70;;;2.50;;
5898;SDS011;2975;50.956;6.962;2023-08-06T03:49:19;2.83;;;2.50;;
5898;SDS011;2975;50.956;6.962;2023-08-06T03:51:44;4.57;;;2.20;;
5898;SDS011;2975;50.956;6.962;2023-08-06T03:54:10;3.37;;;2.17;;
5898;SDS011;2975;50.956;6.962;2023-08-06T03:56:35;4.03;;;2.80;;
5898;SDS011;2975;50.956;6.962;2023-08-06T03:59:01;2.73;;;2.47;;
5898;SDS011;2975;50.956;6.962;2023-08-06T04:01:26;3.20;;;2.53;;
5898;SDS011;2975;50.956;6.962;2023-08-06T04:03:52;3.13;;;2.30;;
5898;SDS011;2975;50.956;6.962;2023-08-06T04:06:18;5.63;;;2.40;;
5898;SDS011;2975;50.956;6.962;2023-08-06T04:08:43;2.13;;;1.83;;
5898;SDS011;2975;50.956;6.962;2023-08-06T04:11:09;6.10;;;2.13;;
5898;SDS011;2975;50.956;6.962;2023-08-06T04:13:34;4.50;;;2.33;;
5898;SDS011;2975;50.956;6.962;2023-08-06T04:16:03;3.57;;;1.90;;
5898;SDS011;2975;50.956;6.962;2023-08-06T04:18:29;5.23;;;2.10;;
5898;SDS011;2975;50.956;6.962;2023-08-06T04:20:55;5.40;;;2.30;;
5898;SDS011;2975;50.956;6.962;2023-08-06T04:23:22;4.47;;;2.17;;
5898;SDS011;2975;50.956;6.962;2023-08-06T04:25:48;2.43;;;1.77;;
5898;SDS011;2975;50.956;6.962;2023-08-06T04:28:14;4.07;;;2.07;;
5898;SDS011;2975;50.956;6.962;2023-08-06T04:30:39;5.50;;;2.30;;
5898;SDS011;2975;50.956;6.962;2023-08-06T04:33:05;3.30;;;2.00;;
5898;SDS011;2975;50.956;6.962;2023-08-06T04:35:30;3.57;;;2.03;;
5898;SDS011;2975;50.956;6.962;2023-08-06T04:37:56;2.57;;;1.80;;
5898;SDS011;2975;50.956;6.962;2023-08-06T04:40:21;3.47;;;2.27;;
5898;SDS011;2975;50.956;6.962;2023-08-06T04:42:47;4.23;;;2.10;;
5898;SDS011;2975;50.956;6.962;2023-08-06T04:45:13;3.23;;;1.97;;
5898;SDS011;2975;50.956;6.962;2023-08-06T04:47:38;7.70;;;2.17;;
5898;SDS011;2975;50.956;6.962;2023-08-06T04:50:04;5.50;;;2.10;;
5898;SDS011;2975;50.956;6.962;2023-08-06T04:52:30;2.23;;;1.77;;
5898;SDS011;2975;50.956;6.962;2023-08-06T04:54:57;3.10;;;2.20;;
5898;SDS011;2975;50.956;6.962;2023-08-06T04:57:22;6.10;;;2.20;;
5898;SDS011;2975;50.956;6.962;2023-08-06T04:59:48;3.73;;;2.13;;
5898;SDS011;2975;50.956;6.962;2023-08-06T05:02:14;2.80;;;2.20;;
5898;SDS011;2975;50.956;6.962;2023-08-06T05:04:39;4.27;;;2.17;;
5898;SDS011;2975;50.956;6.962;2023-08-06T05:07:05;2.30;;;2.10;;
5898;SDS011;2975;50.956;6.962;2023-08-06T05:09:31;5.00;;;2.33;;
5898;SDS011;2975;50.956;6.962;2023-08-06T05:11:57;6.23;;;2.60;;
5898;SDS011;2975;50.956;6.962;2023-08-06T05:14:22;4.00;;;2.40;;
5898;SDS011;2975;50.956;6.962;2023-08-06T05:16:48;6.00;;;2.03;;
5898;SDS011;2975;50.956;6.962;2023-08-06T05:19:13;3.53;;;2.03;;
5898;SDS011;2975;50.956;6.962;2023-08-06T05:21:39;3.67;;;2.13;;
5898;SDS011;2975;50.956;6.962;2023-08-06T05:24:04;5.67;;;2.27;;
5898;SDS011;2975;50.956;6.962;2023-08-06T05:26:30;3.97;;;1.90;;
5898;SDS011;2975;50.956;6.962;2023-08-06T05:28:56;2.40;;;2.10;;
5898;SDS011;2975;50.956;6.962;2023-08-06T05:31:22;2.10;;;1.90;;
5898;SDS011;2975;50.956;6.962;2023-08-06T05:33:47;4.73;;;2.50;;
5898;SDS011;2975;50.956;6.962;2023-08-06T05:36:13;3.67;;;2.33;;
5898;SDS011;2975;50.956;6.962;2023-08-06T05:38:39;4.73;;;2.10;;
5898;SDS011;2975;50.956;6.962;2023-08-06T05:41:04;3.63;;;2.00;;
5898;SDS011;2975;50.956;6.962;2023-08-06T05:43:30;5.30;;;2.10;;
5898;SDS011;2975;50.956;6.962;2023-08-06T05:45:56;2.73;;;2.03;;
5898;SDS011;2975;50.956;6.962;2023-08-06T05:48:22;3.80;;;2.00;;
5898;SDS011;2975;50.956;6.962;2023-08-06T05:50:49;5.50;;;2.10;;
5898;SDS011;2975;50.956;6.962;2023-08-06T05:53:15;2.40;;;2.00;;
5898;SDS011;2975;50.956;6.962;2023-08-06T05:55:41;2.03;;;1.70;;
5898;SDS011;2975;50.956;6.962;2023-08-06T05:58:06;3.07;;;1.90;;
5898;SDS011;2975;50.956;6.962;2023-08-06T06:00:32;3.17;;;2.03;;
5898;SDS011;2975;50.956;6.962;2023-08-06T06:02:58;2.10;;;1.90;;
5898;SDS011;2975;50.956;6.962;2023-08-06T06:05:23;4.67;;;2.83;;
5898;SDS011;2975;50.956;6.962;2023-08-06T06:07:49;4.83;;;2.30;;
5898;SDS011;2975;50.956;6.962;2023-08-06T06:10:14;5.50;;;2.13;;
5898;SDS011;2975;50.956;6.962;2023-08-06T06:12:40;4.17;;;2.00;;
5898;SDS011;2975;50.956;6.962;2023-08-06T06:15:06;4.80;;;3.03;;
5898;SDS011;2975;50.956;6.962;2023-08-06T06:17:32;2.63;;;2.10;;
5898;SDS011;2975;50.956;6.962;2023-08-06T06:19:58;2.83;;;2.10;;
5898;SDS011;2975;50.956;6.962;2023-08-06T06:22:23;3.83;;;2.03;;
5898;SDS011;2975;50.956;6.962;2023-08-06T06:24:49;3.13;;;1.70;;
5898;SDS011;2975;50.956;6.962;2023-08-06T06:27:14;2.67;;;1.90;;
5898;SDS011;2975;50.956;6.962;2023-08-06T06:29:40;2.53;;;1.90;;
5898;SDS011;2975;50.956;6.962;2023-08-06T06:32:06;3.70;;;1.50;;
5898;SDS011;2975;50.956;6.962;2023-08-06T06:34:31;3.00;;;2.07;;
5898;SDS011;2975;50.956;6.962;2023-08-06T06:36:57;4.03;;;1.90;;
5898;SDS011;2975;50.956;6.962;2023-08-06T06:39:23;5.17;;;2.10;;
5898;SDS011;2975;50.956;6.962;2023-08-06T06:41:48;5.40;;;1.90;;
5898;SDS011;2975;50.956;6.962;2023-08-06T06:44:14;2.30;;;1.70;;
5898;SDS011;2975;50.956;6.962;2023-08-06T06:46:40;2.43;;;1.73;;
5898;SDS011;2975;50.956;6.962;2023-08-06T06:49:06;3.00;;;1.83;;
5898;SDS011;2975;50.956;6.962;2023-08-06T06:51:31;2.33;;;1.47;;
5898;SDS011;2975;50.956;6.962;2023-08-06T06:53:57;2.53;;;1.33;;
5898;SDS011;2975;50.956;6.962;2023-08-06T06:56:23;1.13;;;1.00;;
5898;SDS011;2975;50.956;6.962;2023-08-06T06:58:48;1.57;;;1.30;;
5898;SDS011;2975;50.956;6.962;2023-08-06T07:01:14;4.30;;;1.23;;
5898;SDS011;2975;50.956;6.962;2023-08-06T07:03:40;1.33;;;1.10;;
5898;SDS011;2975;50.956;6.962;2023-08-06T07:06:06;0.97;;;0.90;;
5898;SDS011;2975;50.956;6.962;2023-08-06T07:08:31;1.17;;;1.10;;
5898;SDS011;2975;50.956;6.962;2023-08-06T07:11:04;1.40;;;1.07;;
5898;SDS011;2975;50.956;6.962;2023-08-06T07:13:31;1.00;;;1.00;;
5898;SDS011;2975;50.956;6.962;2023-08-06T07:15:58;0.80;;;0.80;;
5898;SDS011;2975;50.956;6.962;2023-08-06T07:18:24;0.87;;;0.70;;
5898;SDS011;2975;50.956;6.962;2023-08-06T07:20:50;1.23;;;0.87;;
5898;SDS011;2975;50.956;6.962;2023-08-06T07:23:16;0.67;;;0.60;;
5898;SDS011;2975;50.956;6.962;2023-08-06T07:25:43;1.23;;;0.80;;
5898;SDS011;2975;50.956;6.962;2023-08-06T07:28:09;0.80;;;0.80;;
5898;SDS011;2975;50.956;6.962;2023-08-06T07:30:38;1.07;;;1.07;;
5898;SDS011;2975;50.956;6.962;2023-08-06T07:33:04;0.80;;;0.80;;
5898;SDS011;2975;50.956;6.962;2023-08-06T07:35:29;0.87;;;0.87;;
5898;SDS011;2975;50.956;6.962;2023-08-06T07:37:55;1.37;;;0.67;;
5898;SDS011;2975;50.956;6.962;2023-08-06T07:40:20;1.80;;;0.80;;
5898;SDS011;2975;50.956;6.962;2023-08-06T07:42:46;1.13;;;1.00;;
5898;SDS011;2975;50.956;6.962;2023-08-06T07:45:11;1.03;;;0.87;;
5898;SDS011;2975;50.956;6.962;2023-08-06T07:47:37;1.77;;;1.47;;
5898;SDS011;2975;50.956;6.962;2023-08-06T07:50:03;1.00;;;0.90;;
5898;SDS011;2975;50.956;6.962;2023-08-06T07:52:29;1.10;;;0.80;;
5898;SDS011;2975;50.956;6.962;2023-08-06T07:54:54;1.43;;;0.80;;
5898;SDS011;2975;50.956;6.962;2023-08-06T07:57:20;0.60;;;0.60;;
5898;SDS011;2975;50.956;6.962;2023-08-06T07:59:46;0.50;;;0.50;;
5898;SDS011;2975;50.956;6.962;2023-08-06T08:02:11;0.60;;;0.60;;
5898;SDS011;2975;50.956;6.962;2023-08-06T08:04:37;1.03;;;0.60;;
5898;SDS011;2975;50.956;6.962;2023-08-06T08:07:02;1.60;;;0.70;;
5898;SDS011;2975;50.956;6.962;2023-08-06T08:09:28;0.60;;;0.60;;
5898;SDS011;2975;50.956;6.962;2023-08-06T08:11:54;0.90;;;0.60;;
5898;SDS011;2975;50.956;6.962;2023-08-06T08:14:20;0.60;;;0.60;;
5898;SDS011;2975;50.956;6.962;2023-08-06T08:16:45;0.90;;;0.80;;
5898;SDS011;2975;50.956;6.962;2023-08-06T08:19:11;0.60;;;0.60;;
5898;SDS011;2975;50.956;6.962;2023-08-06T08:21:36;0.93;;;0.70;;
5898;SDS011;2975;50.956;6.962;2023-08-06T08:24:03;0.60;;;0.60;;
5898;SDS011;2975;50.956;6.962;2023-08-06T08:26:29;1.33;;;0.83;;
5898;SDS011;2975;50.956;6.962;2023-08-06T08:28:55;0.50;;;0.50;;
5898;SDS011;2975;50.956;6.962;2023-08-06T08:31:21;0.80;;;0.60;;
5898;SDS011;2975;50.956;6.962;2023-08-06T08:33:47;0.90;;;0.77;;
5898;SDS011;2975;50.956;6.962;2023-08-06T08:36:13;0.97;;;0.70;;
5898;SDS011;2975;50.956;6.962;2023-08-06T08:38:38;0.60;;;0.60;;
5898;SDS011;2975;50.956;6.962;2023-08-06T08:41:04;0.60;;;0.60;;
5898;SDS011;2975;50.956;6.962;2023-08-06T08:43:30;1.20;;;0.60;;
5898;SDS011;2975;50.956;6.962;2023-08-06T08:45:57;0.60;;;0.60;;
5898;SDS011;2975;50.956;6.962;2023-08-06T08:48:26;1.13;;;0.67;;
5898;SDS011;2975;50.956;6.962;2023-08-06T08:50:53;0.67;;;0.63;;
5898;SDS011;2975;50.956;6.962;2023-08-06T08:53:18;0.60;;;0.60;;
5898;SDS011;2975;50.956;6.962;2023-08-06T08:55:47;0.67;;;0.67;;
5898;SDS011;2975;50.956;6.962;2023-08-06T08:58:14;0.70;;;0.70;;
5898;SDS011;2975;50.956;6.962;2023-08-06T09:00:42;1.90;;;0.67;;
5898;SDS011;2975;50.956;6.962;2023-08-06T09:03:11;0.70;;;0.70;;
5898;SDS011;2975;50.956;6.962;2023-08-06T09:05:37;0.50;;;0.50;;
5898;SDS011;2975;50.956;6.962;2023-08-06T09:08:08;0.60;;;0.60;;
5898;SDS011;2975;50.956;6.962;2023-08-06T09:10:37;0.70;;;0.70;;
5898;SDS011;2975;50.956;6.962;2023-08-06T09:13:04;0.60;;;0.60;;
5898;SDS011;2975;50.956;6.962;2023-08-06T09:15:31;0.87;;;0.80;;
5898;SDS011;2975;50.956;6.962;2023-08-06T09:17:57;0.80;;;0.70;;
5898;SDS011;2975;50.956;6.962;2023-08-06T09:20:22;1.50;;;1.40;;
5898;SDS011;2975;50.956;6.962;2023-08-06T09:22:48;2.03;;;1.83;;
5898;SDS011;2975;50.956;6.962;2023-08-06T09:25:23;2.00;;;1.87;;
5898;SDS011;2975;50.956;6.962;2023-08-06T09:27:50;3.23;;;2.30;;
5898;SDS011;2975;50.956;6.962;2023-08-06T09:30:29;2.10;;;2.00;;
5898;SDS011;2975;50.956;6.962;2023-08-06T09:32:57;2.43;;;2.07;;
5898;SDS011;2975;50.956;6.962;2023-08-06T09:35:23;3.13;;;2.23;;
5898;SDS011;2975;50.956;6.962;2023-08-06T09:37:48;2.57;;;2.37;;
5898;SDS011;2975;50.956;6.962;2023-08-06T09:40:30;2.50;;;2.30;;
5898;SDS011;2975;50.956;6.962;2023-08-06T09:42:57;2.63;;;2.10;;
5898;SDS011;2975;50.956;6.962;2023-08-06T09:45:23;2.53;;;2.33;;
5898;SDS011;2975;50.956;6.962;2023-08-06T09:47:57;3.03;;;2.73;;
5898;SDS011;2975;50.956;6.962;2023-08-06T09:50:27;2.50;;;2.30;;
5898;SDS011;2975;50.956;6.962;2023-08-06T09:52:56;3.03;;;2.73;;
5898;SDS011;2975;50.956;6.962;2023-08-06T09:55:22;3.20;;;2.90;;
5898;SDS011;2975;50.956;6.962;2023-08-06T09:57:49;3.53;;;3.23;;
5898;SDS011;2975;50.956;6.962;2023-08-06T10:00:16;4.33;;;2.73;;
5898;SDS011;2975;50.956;6.962;2023-08-06T10:02:42;3.10;;;2.80;;
5898;SDS011;2975;50.956;6.962;2023-08-06T10:05:09;3.50;;;2.60;;
5898;SDS011;2975;50.956;6.962;2023-08-06T10:07:35;3.33;;;2.33;;
5898;SDS011;2975;50.956;6.962;2023-08-06T10:10:01;2.70;;;2.40;;
5898;SDS011;2975;50.956;6.962;2023-08-06T10:12:32;4.53;;;1.47;;
5898;SDS011;2975;50.956;6.962;2023-08-06T10:15:01;1.30;;;1.03;;
5898;SDS011;2975;50.956;6.962;2023-08-06T10:17:31;1.67;;;0.73;;
5898;SDS011;2975;50.956;6.962;2023-08-06T10:19:58;1.00;;;0.87;;
5898;SDS011;2975;50.956;6.962;2023-08-06T10:22:24;0.80;;;0.60;;
5898;SDS011;2975;50.956;6.962;2023-08-06T10:24:53;0.80;;;0.80;;
5898;SDS011;2975;50.956;6.962;2023-08-06T10:27:39;0.70;;;0.70;;
5898;SDS011;2975;50.956;6.962;2023-08-06T10:30:27;0.50;;;0.50;;
5898;SDS011;2975;50.956;6.962;2023-08-06T10:32:57;1.57;;;0.70;;
5898;SDS011;2975;50.956;6.962;2023-08-06T10:35:36;0.63;;;0.63;;
5898;SDS011;2975;50.956;6.962;2023-08-06T10:38:21;1.30;;;0.47;;
5898;SDS011;2975;50.956;6.962;2023-08-06T10:43:34;0.60;;;0.60;;
5898;SDS011;2975;50.956;6.962;2023-08-06T10:46:03;0.73;;;0.73;;
5898;SDS011;2975;50.956;6.962;2023-08-06T10:48:37;0.80;;;0.80;;
5898;SDS011;2975;50.956;6.962;2023-08-06T10:51:09;0.70;;;0.70;;
5898;SDS011;2975;50.956;6.962;2023-08-06T10:53:36;0.97;;;0.90;;
5898;SDS011;2975;50.956;6.962;2023-08-06T10:56:11;1.47;;;1.30;;
5898;SDS011;2975;50.956;6.962;2023-08-06T10:58:40;1.20;;;1.10;;
5898;SDS011;2975;50.956;6.962;2023-08-06T11:01:06;1.43;;;1.07;;
5898;SDS011;2975;50.956;6.962;2023-08-06T11:03:33;2.47;;;1.00;;
5898;SDS011;2975;50.956;6.962;2023-08-06T11:05:59;1.20;;;1.10;;
5898;SDS011;2975;50.956;6.962;2023-08-06T11:08:28;3.77;;;1.53;;
5898;SDS011;2975;50.956;6.962;2023-08-06T11:11:12;1.50;;;1.40;;
5898;SDS011;2975;50.956;6.962;2023-08-06T11:13:46;2.43;;;1.60;;
5898;SDS011;2975;50.956;6.962;2023-08-06T11:16:16;4.90;;;1.50;;
5898;SDS011;2975;50.956;6.962;2023-08-06T11:18:48;1.43;;;1.33;;
5898;SDS011;2975;50.956;6.962;2023-08-06T11:21:14;3.80;;;1.60;;
5898;SDS011;2975;50.956;6.962;2023-08-06T11:23:43;2.70;;;1.67;;
5898;SDS011;2975;50.956;6.962;2023-08-06T11:26:08;3.10;;;1.73;;
5898;SDS011;2975;50.956;6.962;2023-08-06T11:28:34;2.07;;;1.60;;
5898;SDS011;2975;50.956;6.962;2023-08-06T11:30:59;3.67;;;1.77;;
5898;SDS011;2975;50.956;6.962;2023-08-06T11:33:27;3.23;;;1.50;;
5898;SDS011;2975;50.956;6.962;2023-08-06T11:35:54;1.97;;;1.60;;
5898;SDS011;2975;50.956;6.962;2023-08-06T11:38:21;2.27;;;1.33;;
5898;SDS011;2975;50.956;6.962;2023-08-06T11:40:50;4.87;;;1.50;;
5898;SDS011;2975;50.956;6.962;2023-08-06T11:43:17;3.30;;;1.70;;
5898;SDS011;2975;50.956;6.962;2023-08-06T11:45:44;3.83;;;1.50;;
5898;SDS011;2975;50.956;6.962;2023-08-06T11:48:09;2.33;;;1.20;;
5898;SDS011;2975;50.956;6.962;2023-08-06T11:50:38;3.13;;;1.30;;
5898;SDS011;2975;50.956;6.962;2023-08-06T11:53:04;2.47;;;1.40;;
5898;SDS011;2975;50.956;6.962;2023-08-06T11:55:30;1.33;;;1.23;;
5898;SDS011;2975;50.956;6.962;2023-08-06T11:57:56;4.53;;;1.40;;
5898;SDS011;2975;50.956;6.962;2023-08-06T12:00:22;4.17;;;1.30;;
5898;SDS011;2975;50.956;6.962;2023-08-06T12:02:52;1.47;;;0.93;;
5898;SDS011;2975;50.956;6.962;2023-08-06T12:05:19;3.97;;;1.27;;
5898;SDS011;2975;50.956;6.962;2023-08-06T12:07:46;2.73;;;1.70;;
5898;SDS011;2975;50.956;6.962;2023-08-06T12:10:15;2.47;;;1.00;;
5898;SDS011;2975;50.956;6.962;2023-08-06T12:12:41;2.33;;;1.30;;
5898;SDS011;2975;50.956;6.962;2023-08-06T12:15:08;2.10;;;1.10;;
5898;SDS011;2975;50.956;6.962;2023-08-06T12:17:35;0.90;;;0.87;;
5898;SDS011;2975;50.956;6.962;2023-08-06T12:20:01;3.47;;;1.10;;
5898;SDS011;2975;50.956;6.962;2023-08-06T12:22:29;4.07;;;1.00;;
5898;SDS011;2975;50.956;6.962;2023-08-06T12:24:59;3.93;;;1.00;;
5898;SDS011;2975;50.956;6.962;2023-08-06T12:27:26;3.80;;;1.10;;
5898;SDS011;2975;50.956;6.962;2023-08-06T12:29:51;2.83;;;1.40;;
5898;SDS011;2975;50.956;6.962;2023-08-06T12:32:17;3.67;;;0.93;;
5898;SDS011;2975;50.956;6.962;2023-08-06T12:34:42;3.33;;;0.90;;
5898;SDS011;2975;50.956;6.962;2023-08-06T12:37:08;1.17;;;0.90;;
5898;SDS011;2975;50.956;6.962;2023-08-06T12:39:34;1.70;;;1.00;;
5898;SDS011;2975;50.956;6.962;2023-08-06T12:42:01;4.30;;;1.20;;
5898;SDS011;2975;50.956;6.962;2023-08-06T12:44:29;4.90;;;1.00;;
5898;SDS011;2975;50.956;6.962;2023-08-06T12:46:55;2.37;;;1.10;;
5898;SDS011;2975;50.956;6.962;2023-08-06T12:49:21;3.70;;;1.10;;
5898;SDS011;2975;50.956;6.962;2023-08-06T12:51:47;4.77;;;1.20;;
5898;SDS011;2975;50.956;6.962;2023-08-06T12:54:17;1.93;;;1.20;;
5898;SDS011;2975;50.956;6.962;2023-08-06T12:56:43;3.03;;;1.20;;
5898;SDS011;2975;50.956;6.962;2023-08-06T12:59:09;3.23;;;1.47;;
5898;SDS011;2975;50.956;6.962;2023-08-06T13:01:36;3.10;;;1.30;;
5898;SDS011;2975;50.956;6.962;2023-08-06T13:04:02;3.33;;;1.20;;
5898;SDS011;2975;50.956;6.962;2023-08-06T13:06:28;2.23;;;1.30;;
5898;SDS011;2975;50.956;6.962;2023-08-06T13:08:54;2.30;;;1.10;;
5898;SDS011;2975;50.956;6.962;2023-08-06T13:11:19;1.60;;;1.23;;
5898;SDS011;2975;50.956;6.962;2023-08-06T13:13:45;1.90;;;1.33;;
5898;SDS011;2975;50.956;6.962;2023-08-06T13:16:10;2.77;;;1.60;;
5898;SDS011;2975;50.956;6.962;2023-08-06T13:18:36;3.27;;;1.60;;
5898;SDS011;2975;50.956;6.962;2023-08-06T13:21:02;2.07;;;1.40;;
5898;SDS011;2975;50.956;6.962;2023-08-06T13:23:27;2.30;;;1.10;;
5898;SDS011;2975;50.956;6.962;2023-08-06T13:25:53;2.43;;;1.37;;
5898;SDS011;2975;50.956;6.962;2023-08-06T13:28:19;2.50;;;1.40;;
5898;SDS011;2975;50.956;6.962;2023-08-06T13:30:45;2.80;;;1.13;;
5898;SDS011;2975;50.956;6.962;2023-08-06T13:33:11;2.97;;;1.50;;
5898;SDS011;2975;50.956;6.962;2023-08-06T13:35:37;2.63;;;1.63;;
5898;SDS011;2975;50.956;6.962;2023-08-06T13:38:03;2.83;;;1.37;;
5898;SDS011;2975;50.956;6.962;2023-08-06T13:40:29;3.80;;;1.43;;
5898;SDS011;2975;50.956;6.962;2023-08-06T13:42:58;2.67;;;1.40;;
5898;SDS011;2975;50.956;6.962;2023-08-06T13:45:24;3.10;;;1.70;;
5898;SDS011;2975;50.956;6.962;2023-08-06T13:47:49;2.67;;;1.50;;
5898;SDS011;2975;50.956;6.962;2023-08-06T13:50:15;2.50;;;1.30;;
5898;SDS011;2975;50.956;6.962;2023-08-06T13:52:41;1.67;;;1.53;;
5898;SDS011;2975;50.956;6.962;2023-08-06T13:55:07;3.13;;;1.80;;
5898;SDS011;2975;50.956;6.962;2023-08-06T13:57:33;3.33;;;1.50;;
5898;SDS011;2975;50.956;6.962;2023-08-06T13:59:59;3.63;;;1.70;;
5898;SDS011;2975;50.956;6.962;2023-08-06T14:02:25;2.00;;;1.70;;
5898;SDS011;2975;50.956;6.962;2023-08-06T14:04:54;2.90;;;1.47;;
5898;SDS011;2975;50.956;6.962;2023-08-06T14:07:20;3.73;;;1.73;;
5898;SDS011;2975;50.956;6.962;2023-08-06T14:09:46;4.53;;;1.50;;
5898;SDS011;2975;50.956;6.962;2023-08-06T14:12:12;4.07;;;1.33;;
5898;SDS011;2975;50.956;6.962;2023-08-06T14:14:38;2.20;;;1.20;;
5898;SDS011;2975;50.956;6.962;2023-08-06T14:17:04;3.03;;;1.60;;
5898;SDS011;2975;50.956;6.962;2023-08-06T14:19:30;1.87;;;1.50;;
5898;SDS011;2975;50.956;6.962;2023-08-06T14:21:55;2.00;;;1.10;;
5898;SDS011;2975;50.956;6.962;2023-08-06T14:24:21;1.97;;;1.20;;
5898;SDS011;2975;50.956;6.962;2023-08-06T14:26:47;1.67;;;1.03;;
5898;SDS011;2975;50.956;6.962;2023-08-06T14:29:13;2.50;;;1.03;;
5898;SDS011;2975;50.956;6.962;2023-08-06T14:31:39;1.93;;;0.83;;
5898;SDS011;2975;50.956;6.962;2023-08-06T14:34:05;5.17;;;1.20;;
5898;SDS011;2975;50.956;6.962;2023-08-06T14:36:31;4.53;;;1.00;;
5898;SDS011;2975;50.956;6.962;2023-08-06T14:38:57;1.67;;;0.83;;
5898;SDS011;2975;50.956;6.962;2023-08-06T14:41:22;3.20;;;0.90;;
5898;SDS011;2975;50.956;6.962;2023-08-06T14:43:49;3.17;;;1.00;;
5898;SDS011;2975;50.956;6.962;2023-08-06T14:46:15;4.47;;;1.00;;
5898;SDS011;2975;50.956;6.962;2023-08-06T14:48:40;3.03;;;0.97;;
5898;SDS011;2975;50.956;6.962;2023-08-06T14:51:07;2.47;;;0.83;;
5898;SDS011;2975;50.956;6.962;2023-08-06T14:53:33;2.40;;;0.93;;
5898;SDS011;2975;50.956;6.962;2023-08-06T14:55:58;5.60;;;1.13;;
5898;SDS011;2975;50.956;6.962;2023-08-06T14:58:24;2.23;;;0.87;;
5898;SDS011;2975;50.956;6.962;2023-08-06T15:00:49;2.70;;;0.90;;
5898;SDS011;2975;50.956;6.962;2023-08-06T15:03:15;1.67;;;0.57;;
5898;SDS011;2975;50.956;6.962;2023-08-06T15:05:43;4.67;;;0.93;;
5898;SDS011;2975;50.956;6.962;2023-08-06T15:08:09;1.03;;;0.90;;
5898;SDS011;2975;50.956;6.962;2023-08-06T15:10:35;2.33;;;0.90;;
5898;SDS011;2975;50.956;6.962;2023-08-06T15:13:01;2.70;;;1.00;;
5898;SDS011;2975;50.956;6.962;2023-08-06T15:15:28;1.30;;;1.20;;
5898;SDS011;2975;50.956;6.962;2023-08-06T15:17:53;3.50;;;1.10;;
5898;SDS011;2975;50.956;6.962;2023-08-06T15:20:19;2.00;;;1.07;;
5898;SDS011;2975;50.956;6.962;2023-08-06T15:22:45;3.90;;;0.90;;